Time;durP1;ratioP1;P1;durP2;ratioP2;P2;SDS_P1;SDS_P2;PMS_P1;PMS_P2;Temp;Humidity;BMP_temperature;BMP_pressure;BME280_temperature;BME280_humidity;BME280_pressure;Samples;Min_cycle;Max_cycle;Signal;HPM_P1;HPM_P2
2021/10/10 00:00:10;;;;;;;15.30;11.70;;;10.20;77.30;;;;;;5007147;28;20890;-42
2021/10/10 00:02:37;;;;;;;14.87;11.97;;;10.20;77.00;;;;;;5009103;28;20470;-43
2021/10/10 00:05:05;;;;;;;17.30;12.43;;;10.20;77.20;;;;;;5009538;28;20538;-42
2021/10/10 00:07:32;;;;;;;15.53;12.20;;;10.10;77.30;;;;;;5009582;28;20467;-42
2021/10/10 00:09:58;;;;;;;18.80;12.37;;;10.10;77.30;;;;;;5008618;28;20837;-42
2021/10/10 00:12:25;;;;;;;17.00;11.77;;;10.00;77.50;;;;;;5008613;28;20543;-42
2021/10/10 00:14:52;;;;;;;21.43;11.60;;;10.00;77.40;;;;;;5008893;28;20479;-42
2021/10/10 00:17:19;;;;;;;14.30;11.37;;;10.00;77.20;;;;;;5005777;28;20492;-42
2021/10/10 00:19:45;;;;;;;15.80;11.07;;;10.00;77.00;;;;;;5010309;28;20464;-42
2021/10/10 00:22:12;;;;;;;17.03;12.13;;;10.00;77.00;;;;;;4991977;28;20828;-42
2021/10/10 00:24:39;;;;;;;16.40;11.50;;;9.90;77.10;;;;;;5008264;28;20976;-42
2021/10/10 00:27:05;;;;;;;20.53;12.50;;;9.90;77.20;;;;;;4991610;28;20982;-42
2021/10/10 00:29:32;;;;;;;18.10;12.20;;;9.90;77.10;;;;;;5007527;28;20484;-43
2021/10/10 00:32:01;;;;;;;16.80;11.13;;;9.80;77.20;;;;;;4991779;28;20448;-42
2021/10/10 00:34:28;;;;;;;14.37;10.80;;;9.80;77.20;;;;;;5008591;28;20483;-42
2021/10/10 00:36:55;;;;;;;16.87;12.10;;;9.80;77.10;;;;;;5009790;28;20464;-42
2021/10/10 00:39:21;;;;;;;17.10;11.97;;;9.70;77.40;;;;;;5008939;28;20479;-43
2021/10/10 00:41:48;;;;;;;15.90;10.93;;;9.70;77.50;;;;;;5005382;28;20472;-43
2021/10/10 00:44:15;;;;;;;16.40;10.40;;;9.60;77.70;;;;;;5006665;28;20539;-42
2021/10/10 00:46:41;;;;;;;16.63;11.70;;;9.60;77.80;;;;;;5001968;28;20826;-43
2021/10/10 00:49:08;;;;;;;18.27;12.80;;;9.50;77.90;;;;;;5008865;28;20503;-42
2021/10/10 00:51:37;;;;;;;16.37;11.37;;;9.50;78.10;;;;;;5008199;28;20441;-42
2021/10/10 00:54:06;;;;;;;21.77;14.40;;;9.50;78.10;;;;;;5008195;28;20456;-42
2021/10/10 00:56:34;;;;;;;17.47;12.07;;;9.50;78.20;;;;;;5008378;28;20452;-42
2021/10/10 00:59:02;;;;;;;17.60;12.87;;;9.50;78.40;;;;;;5008855;28;20984;-42
2021/10/10 01:01:30;;;;;;;17.13;12.27;;;9.60;78.20;;;;;;4991980;28;20468;-42
2021/10/10 01:03:57;;;;;;;18.07;13.50;;;9.50;78.20;;;;;;5006867;28;20988;-42
2021/10/10 01:06:25;;;;;;;17.90;13.70;;;9.50;78.20;;;;;;4993091;28;20468;-42
2021/10/10 01:08:51;;;;;;;15.10;11.40;;;9.50;77.90;;;;;;5005166;28;20488;-42
2021/10/10 01:11:19;;;;;;;13.87;11.43;;;9.50;77.70;;;;;;4989763;28;20445;-42
2021/10/10 01:13:46;;;;;;;16.60;13.07;;;9.50;77.50;;;;;;5001227;28;20467;-42
2021/10/10 01:16:15;;;;;;;14.70;11.77;;;9.40;77.40;;;;;;5006168;28;20853;-42
2021/10/10 01:18:42;;;;;;;15.83;12.10;;;9.40;77.30;;;;;;4991417;28;20456;-42
2021/10/10 01:21:09;;;;;;;15.33;12.27;;;9.40;77.50;;;;;;5007316;28;20463;-42
2021/10/10 01:23:35;;;;;;;16.23;11.57;;;9.30;77.50;;;;;;5008716;28;20535;-42
2021/10/10 01:26:03;;;;;;;16.20;11.13;;;9.30;77.50;;;;;;5006872;28;20457;-42
2021/10/10 01:28:29;;;;;;;16.00;12.40;;;9.20;77.60;;;;;;5006665;28;21017;-42
2021/10/10 01:30:56;;;;;;;17.00;13.20;;;9.20;77.60;;;;;;5005609;28;20970;-42
2021/10/10 01:33:23;;;;;;;15.70;11.20;;;9.20;77.70;;;;;;4987295;28;20460;-42
2021/10/10 01:35:50;;;;;;;16.53;11.50;;;9.20;77.70;;;;;;5003874;28;20476;-42
2021/10/10 01:38:18;;;;;;;15.77;11.57;;;9.20;77.30;;;;;;5007342;28;20456;-42
2021/10/10 01:40:46;;;;;;;16.33;11.43;;;9.10;77.40;;;;;;5003325;28;20457;-42
2021/10/10 01:43:13;;;;;;;15.13;11.17;;;9.10;77.60;;;;;;5002950;28;20893;-42
2021/10/10 01:45:40;;;;;;;15.37;12.10;;;9.10;77.60;;;;;;5006379;28;20542;-42
2021/10/10 01:48:07;;;;;;;17.80;12.83;;;9.00;77.90;;;;;;5006144;28;20898;-42
2021/10/10 01:50:34;;;;;;;15.20;11.30;;;9.00;77.90;;;;;;5006101;28;20488;-42
2021/10/10 01:53:01;;;;;;;13.40;12.00;;;9.00;77.90;;;;;;5007716;28;20833;-42
2021/10/10 01:55:28;;;;;;;16.30;12.10;;;9.00;78.20;;;;;;4987287;28;20479;-42
2021/10/10 01:57:56;;;;;;;12.60;11.07;;;9.00;78.10;;;;;;4989748;28;20826;-42
2021/10/10 02:00:22;;;;;;;15.00;12.13;;;9.00;78.10;;;;;;5006473;28;20814;-42
2021/10/10 02:02:49;;;;;;;14.30;12.17;;;9.00;78.10;;;;;;5006346;28;20467;-42
2021/10/10 02:05:16;;;;;;;16.20;12.77;;;9.00;78.20;;;;;;5006062;28;20838;-42
2021/10/10 02:07:43;;;;;;;15.57;10.73;;;8.90;78.20;;;;;;5005168;28;20499;-42
2021/10/10 02:10:10;;;;;;;15.07;11.20;;;8.90;78.10;;;;;;5005762;28;20591;-42
2021/10/10 02:12:41;;;;;;;17.00;12.67;;;8.90;77.60;;;;;;5006167;28;20447;-41
2021/10/10 02:15:08;;;;;;;18.93;12.03;;;8.90;77.40;;;;;;5008378;28;20464;-41
2021/10/10 02:17:36;;;;;;;14.83;10.60;;;8.80;77.50;;;;;;5005506;28;20467;-41
2021/10/10 02:20:08;;;;;;;15.63;11.10;;;8.80;77.50;;;;;;5004274;28;20464;-41
2021/10/10 02:22:35;;;;;;;15.23;10.67;;;8.70;77.50;;;;;;4990275;28;20471;-41
2021/10/10 02:25:03;;;;;;;13.80;10.10;;;8.70;77.70;;;;;;5004775;28;20468;-41
2021/10/10 02:27:29;;;;;;;13.77;10.87;;;8.70;77.70;;;;;;4989894;28;20468;-41
2021/10/10 02:29:56;;;;;;;18.40;11.97;;;8.80;77.70;;;;;;5006490;28;20583;-41
2021/10/10 02:32:23;;;;;;;14.43;12.20;;;8.70;77.70;;;;;;5006511;28;20455;-41
2021/10/10 02:34:49;;;;;;;15.50;11.70;;;8.70;77.80;;;;;;5005443;28;20887;-41
2021/10/10 02:37:16;;;;;;;18.73;12.07;;;8.60;78.00;;;;;;5005570;28;20463;-41
2021/10/10 02:39:43;;;;;;;16.57;11.93;;;8.60;78.10;;;;;;5007085;28;20841;-41
2021/10/10 02:42:10;;;;;;;15.10;11.20;;;8.60;78.10;;;;;;5004651;28;20929;-41
2021/10/10 02:44:36;;;;;;;20.07;12.00;;;8.50;78.30;;;;;;5005252;28;20464;-41
2021/10/10 02:47:03;;;;;;;15.80;11.60;;;8.50;78.30;;;;;;5005756;28;20989;-41
2021/10/10 02:49:30;;;;;;;15.87;12.23;;;8.50;78.40;;;;;;5004808;28;20583;-41
2021/10/10 02:51:57;;;;;;;14.37;11.90;;;8.50;78.40;;;;;;5006127;28;20983;-44
2021/10/10 02:54:24;;;;;;;14.10;11.30;;;8.50;78.60;;;;;;5006443;28;21237;-44
2021/10/10 02:56:50;;;;;;;11.83;10.53;;;8.40;78.60;;;;;;5010973;28;20474;-44
2021/10/10 02:59:17;;;;;;;17.50;12.63;;;8.50;78.60;;;;;;5009534;28;20464;-44
2021/10/10 03:01:44;;;;;;;16.60;11.30;;;8.50;78.50;;;;;;5011274;28;20840;-44
2021/10/10 03:04:11;;;;;;;14.47;11.87;;;8.40;78.50;;;;;;5014581;28;20836;-44
2021/10/10 03:06:38;;;;;;;16.43;11.50;;;8.40;78.50;;;;;;5009652;28;20555;-44
2021/10/10 03:09:05;;;;;;;14.83;12.30;;;8.40;78.70;;;;;;4995465;28;20495;-44
2021/10/10 03:11:31;;;;;;;15.63;12.13;;;8.40;78.60;;;;;;4996794;28;20464;-44
2021/10/10 03:13:58;;;;;;;14.40;11.70;;;8.40;78.50;;;;;;4995909;28;20453;-44
2021/10/10 03:16:25;;;;;;;14.63;11.47;;;8.40;78.60;;;;;;5013117;28;20553;-44
2021/10/10 03:18:51;;;;;;;17.50;11.10;;;8.40;78.60;;;;;;5015188;28;20529;-44
2021/10/10 03:21:18;;;;;;;16.40;11.70;;;8.40;78.50;;;;;;5012723;28;20452;-44
2021/10/10 03:23:45;;;;;;;15.13;11.27;;;8.40;78.00;;;;;;5013689;28;20460;-44
2021/10/10 03:26:12;;;;;;;13.87;11.10;;;8.40;77.80;;;;;;5012680;28;20460;-44
2021/10/10 03:28:38;;;;;;;11.93;9.83;;;8.40;77.80;;;;;;5014454;28;20456;-44
2021/10/10 03:31:05;;;;;;;18.20;12.10;;;8.40;77.70;;;;;;5009715;28;21014;-44
2021/10/10 03:33:32;;;;;;;19.70;11.93;;;8.40;77.30;;;;;;5014468;28;20467;-44
2021/10/10 03:35:59;;;;;;;13.40;10.70;;;8.30;77.40;;;;;;5011941;28;20828;-44
2021/10/10 03:38:26;;;;;;;15.33;11.10;;;8.30;77.40;;;;;;5013332;28;20461;-44
2021/10/10 03:40:52;;;;;;;14.83;10.70;;;8.20;77.50;;;;;;5010928;28;20845;-44
2021/10/10 03:43:19;;;;;;;24.13;15.23;;;8.10;77.70;;;;;;5011819;28;20457;-43
2021/10/10 03:45:46;;;;;;;54.70;28.63;;;8.20;77.90;;;;;;5011541;28;20463;-44
2021/10/10 03:48:13;;;;;;;53.93;29.70;;;8.20;77.70;;;;;;5013012;28;20456;-44
2021/10/10 03:50:39;;;;;;;40.93;22.70;;;8.10;77.60;;;;;;5011893;28;20487;-44
2021/10/10 03:53:06;;;;;;;28.40;17.70;;;8.10;77.60;;;;;;5013239;28;20461;-44
2021/10/10 03:55:35;;;;;;;20.23;13.93;;;8.00;77.70;;;;;;5011907;28;20875;-44
2021/10/10 03:58:02;;;;;;;21.17;13.23;;;8.00;77.80;;;;;;5011930;28;20468;-43
2021/10/10 04:00:31;;;;;;;17.10;12.33;;;7.90;77.50;;;;;;5009555;28;20466;-44
2021/10/10 04:03:00;;;;;;;17.77;12.30;;;7.90;77.60;;;;;;5012872;28;21078;-44
2021/10/10 04:08:01;;;;;;;19.60;12.63;;;7.80;77.50;;;;;;5010215;28;20475;-44
2021/10/10 04:10:28;;;;;;;20.67;13.87;;;7.80;77.50;;;;;;5008666;28;20495;-44
2021/10/10 04:12:55;;;;;;;15.43;11.83;;;7.80;77.50;;;;;;5012187;28;20444;-44
2021/10/10 04:15:22;;;;;;;14.67;11.80;;;7.70;77.50;;;;;;5010337;28;20969;-44
2021/10/10 04:17:49;;;;;;;14.20;11.47;;;7.70;77.60;;;;;;5012835;28;20458;-44
2021/10/10 04:20:18;;;;;;;14.13;11.23;;;7.70;77.50;;;;;;5007496;28;20467;-44
2021/10/10 04:22:46;;;;;;;13.80;10.17;;;7.60;77.50;;;;;;5013208;28;20490;-44
2021/10/10 04:25:13;;;;;;;18.10;12.50;;;7.60;77.40;;;;;;5006486;28;20464;-44
2021/10/10 04:27:40;;;;;;;17.60;12.07;;;7.60;77.50;;;;;;5011124;28;20543;-44
2021/10/10 04:30:11;;;;;;;13.70;9.93;;;7.50;77.70;;;;;;5010348;28;21024;-44
2021/10/10 04:32:40;;;;;;;15.40;11.77;;;7.50;77.60;;;;;;5009156;28;20453;-44
2021/10/10 04:35:07;;;;;;;13.60;11.13;;;7.50;77.60;;;;;;4993626;28;20834;-44
2021/10/10 04:37:34;;;;;;;15.77;10.87;;;7.50;77.40;;;;;;5011237;28;20449;-44
2021/10/10 04:40:01;;;;;;;19.07;12.77;;;7.40;77.40;;;;;;5008872;28;20837;-44
2021/10/10 04:42:28;;;;;;;17.43;11.13;;;7.40;77.60;;;;;;5012586;28;20460;-44
2021/10/10 04:44:55;;;;;;;15.07;10.73;;;7.40;77.70;;;;;;5006449;28;20814;-44
2021/10/10 04:47:21;;;;;;;15.30;10.47;;;7.40;77.70;;;;;;5010857;28;20869;-44
2021/10/10 04:49:48;;;;;;;17.63;11.97;;;7.40;77.70;;;;;;5010408;28;20487;-44
2021/10/10 04:52:15;;;;;;;14.20;10.87;;;7.40;77.80;;;;;;5010569;28;20491;-44
2021/10/10 04:54:42;;;;;;;15.70;11.07;;;7.40;77.60;;;;;;5008561;28;20456;-44
2021/10/10 04:57:09;;;;;;;13.70;10.57;;;7.30;77.70;;;;;;5007857;28;21069;-44
2021/10/10 04:59:36;;;;;;;16.10;10.60;;;7.30;77.80;;;;;;5013546;28;20957;-44
2021/10/10 05:02:03;;;;;;;16.50;11.03;;;7.30;77.70;;;;;;5005710;28;20789;-44
2021/10/10 05:04:30;;;;;;;20.20;12.97;;;7.20;77.60;;;;;;5008628;28;20484;-44
2021/10/10 05:06:57;;;;;;;11.33;9.67;;;7.20;77.40;;;;;;5008809;28;20458;-44
2021/10/10 05:09:23;;;;;;;14.37;10.73;;;7.20;77.30;;;;;;5007443;28;20949;-44
2021/10/10 05:11:50;;;;;;;17.90;11.13;;;7.10;77.40;;;;;;5009646;28;20503;-44
2021/10/10 05:14:17;;;;;;;19.17;12.17;;;7.10;77.30;;;;;;5009175;28;20451;-44
2021/10/10 05:16:43;;;;;;;12.60;9.27;;;7.10;77.30;;;;;;5006335;28;20471;-44
2021/10/10 05:19:10;;;;;;;12.77;10.40;;;7.10;77.60;;;;;;5008560;28;20493;-44
2021/10/10 05:21:37;;;;;;;14.47;9.70;;;7.10;77.50;;;;;;5008813;28;20467;-44
2021/10/10 05:24:04;;;;;;;15.87;11.80;;;7.10;77.50;;;;;;4993139;28;20474;-44
2021/10/10 05:26:30;;;;;;;11.60;9.47;;;7.10;77.40;;;;;;5008672;28;20464;-44
2021/10/10 05:28:57;;;;;;;14.50;10.93;;;7.00;77.40;;;;;;5010585;28;20460;-44
2021/10/10 05:31:24;;;;;;;15.10;10.00;;;7.00;77.70;;;;;;5009564;28;21008;-44
2021/10/10 05:33:51;;;;;;;12.93;10.10;;;6.90;77.80;;;;;;4992376;28;20468;-44
2021/10/10 05:36:17;;;;;;;16.40;11.40;;;6.90;78.10;;;;;;5008480;28;21222;-44
2021/10/10 05:38:44;;;;;;;16.57;10.67;;;6.90;77.80;;;;;;4990425;28;20456;-44
2021/10/10 05:41:11;;;;;;;20.87;12.60;;;6.90;77.80;;;;;;5005909;28;20539;-44
2021/10/10 05:43:37;;;;;;;13.90;10.57;;;6.90;78.00;;;;;;5008447;28;22065;-44
2021/10/10 05:46:04;;;;;;;20.03;10.70;;;6.90;77.90;;;;;;5008435;28;20472;-44
2021/10/10 05:48:31;;;;;;;16.57;9.97;;;6.90;77.90;;;;;;5008945;28;20554;-44
2021/10/10 05:50:58;;;;;;;20.63;11.60;;;6.90;78.00;;;;;;5008402;28;20492;-44
2021/10/10 05:53:25;;;;;;;15.30;9.73;;;6.90;78.10;;;;;;5009698;28;20519;-44
2021/10/10 05:55:59;;;;;;;16.17;11.00;;;6.90;78.10;;;;;;5007326;28;20663;-44
2021/10/10 05:58:28;;;;;;;15.53;10.20;;;6.90;78.20;;;;;;5007480;28;20466;-44
2021/10/10 06:00:55;;;;;;;13.10;9.57;;;6.90;78.30;;;;;;4991786;28;20472;-44
2021/10/10 06:03:23;;;;;;;14.47;10.10;;;6.90;78.30;;;;;;5009548;28;20855;-44
2021/10/10 06:05:50;;;;;;;14.73;12.37;;;6.80;78.40;;;;;;5009640;28;20460;-44
2021/10/10 06:08:16;;;;;;;18.10;10.80;;;6.90;78.50;;;;;;5008791;28;20468;-44
2021/10/10 06:10:44;;;;;;;13.67;9.63;;;6.80;78.70;;;;;;5006765;28;21023;-45
2021/10/10 06:13:11;;;;;;;14.60;9.90;;;6.90;78.60;;;;;;5008735;28;20474;-44
2021/10/10 06:15:39;;;;;;;16.67;10.10;;;6.80;78.70;;;;;;5006969;28;20899;-44
2021/10/10 06:18:08;;;;;;;15.83;10.13;;;6.80;78.90;;;;;;5009616;28;20464;-44
2021/10/10 06:20:36;;;;;;;15.50;10.20;;;6.90;78.80;;;;;;4992066;28;20466;-44
2021/10/10 06:23:03;;;;;;;12.70;10.20;;;6.90;78.90;;;;;;5004812;28;20475;-44
2021/10/10 06:25:29;;;;;;;16.67;10.20;;;6.90;78.90;;;;;;5010183;28;20975;-44
2021/10/10 06:27:56;;;;;;;15.70;9.97;;;6.90;79.00;;;;;;5007260;28;20461;-44
2021/10/10 06:30:23;;;;;;;12.37;9.63;;;6.90;79.10;;;;;;5007612;28;20880;-44
2021/10/10 06:32:49;;;;;;;13.67;9.53;;;6.90;79.00;;;;;;5009465;28;20482;-44
2021/10/10 06:35:16;;;;;;;12.60;9.90;;;6.90;78.90;;;;;;5006791;28;20456;-44
2021/10/10 06:37:43;;;;;;;16.20;10.03;;;7.00;79.00;;;;;;4997856;28;20874;-44
2021/10/10 06:40:10;;;;;;;14.00;9.13;;;7.00;78.80;;;;;;5007700;28;20463;-44
2021/10/10 06:42:37;;;;;;;12.47;9.70;;;7.00;78.70;;;;;;5007504;28;20975;-44
2021/10/10 06:45:05;;;;;;;16.33;9.87;;;7.10;78.70;;;;;;5012909;28;20463;-44
2021/10/10 06:47:31;;;;;;;14.73;10.43;;;7.00;78.80;;;;;;5014325;28;20470;-44
2021/10/10 06:49:58;;;;;;;16.23;10.60;;;7.10;78.90;;;;;;5008933;28;20464;-44
2021/10/10 06:52:24;;;;;;;14.20;11.00;;;7.10;79.00;;;;;;5013717;28;20452;-44
2021/10/10 06:54:52;;;;;;;18.37;12.13;;;7.10;79.00;;;;;;5013036;28;20460;-44
2021/10/10 06:57:19;;;;;;;19.23;13.23;;;7.10;79.00;;;;;;5012295;28;20453;-44
2021/10/10 06:59:46;;;;;;;17.87;11.87;;;7.10;79.00;;;;;;5011578;28;20470;-44
2021/10/10 07:02:12;;;;;;;20.03;11.67;;;7.20;79.10;;;;;;5013814;28;20454;-44
2021/10/10 07:04:39;;;;;;;13.03;10.17;;;7.20;79.10;;;;;;5010986;28;20502;-44
2021/10/10 07:07:06;;;;;;;13.77;11.07;;;7.30;79.20;;;;;;5013092;28;20475;-44
2021/10/10 07:09:33;;;;;;;12.87;9.87;;;7.30;79.40;;;;;;5013321;28;20470;-44
2021/10/10 07:11:59;;;;;;;16.13;11.47;;;7.40;79.40;;;;;;5009378;28;20488;-44
2021/10/10 07:14:26;;;;;;;15.00;10.90;;;7.40;79.60;;;;;;5011234;28;20680;-44
2021/10/10 07:16:54;;;;;;;17.60;11.10;;;7.50;79.70;;;;;;5009715;28;20464;-44
2021/10/10 07:19:24;;;;;;;18.33;11.53;;;7.50;79.90;;;;;;5010110;28;20527;-44
2021/10/10 07:22:14;;;;;;;14.43;10.40;;;7.60;80.00;;;;;;5011142;28;20463;-45
2021/10/10 07:27:26;;;;;;;13.93;10.70;;;7.70;80.50;;;;;;5012505;28;20455;-44
2021/10/10 07:29:53;;;;;;;11.40;9.83;;;7.80;80.70;;;;;;5013796;28;21056;-44
2021/10/10 07:32:20;;;;;;;15.07;10.33;;;7.90;80.80;;;;;;5013449;28;20989;-44
2021/10/10 07:34:46;;;;;;;13.70;10.80;;;7.90;80.90;;;;;;5008299;28;20470;-44
2021/10/10 07:37:13;;;;;;;15.07;10.60;;;8.10;80.50;;;;;;5012637;28;20474;-44
2021/10/10 07:39:40;;;;;;;14.87;11.00;;;8.20;80.10;;;;;;5010490;28;20453;-44
2021/10/10 07:42:06;;;;;;;15.23;11.40;;;8.30;79.80;;;;;;5009996;28;20479;-44
2021/10/10 07:44:37;;;;;;;14.90;10.80;;;8.40;79.80;;;;;;5011662;28;20464;-44
2021/10/10 07:47:15;;;;;;;13.70;10.30;;;8.50;79.80;;;;;;4994111;28;20883;-45
2021/10/10 07:49:44;;;;;;;15.23;9.70;;;8.60;79.20;;;;;;5008267;28;20833;-44
2021/10/10 07:52:11;;;;;;;12.10;9.20;;;8.70;78.40;;;;;;5010564;28;21014;-44
2021/10/10 07:54:38;;;;;;;14.00;9.63;;;8.80;77.50;;;;;;5008952;28;20460;-44
2021/10/10 07:57:05;;;;;;;11.23;9.27;;;8.90;76.10;;;;;;5010398;28;20464;-44
2021/10/10 07:59:32;;;;;;;14.57;8.60;;;9.10;75.20;;;;;;5011848;28;20464;-44
2021/10/10 08:01:59;;;;;;;12.07;9.60;;;9.30;74.70;;;;;;5009491;28;20464;-44
2021/10/10 08:04:27;;;;;;;13.50;9.17;;;9.50;74.50;;;;;;5009411;28;21005;-44
2021/10/10 08:06:55;;;;;;;12.40;9.00;;;9.60;73.50;;;;;;4993229;28;20463;-44
2021/10/10 08:09:23;;;;;;;11.43;9.90;;;9.80;72.90;;;;;;5011834;28;20464;-44
2021/10/10 08:11:50;;;;;;;14.10;10.10;;;9.90;72.10;;;;;;5013244;28;20492;-44
2021/10/10 08:14:17;;;;;;;13.33;9.60;;;10.10;70.50;;;;;;5011704;28;20487;-45
2021/10/10 08:16:44;;;;;;;12.17;9.77;;;10.30;70.70;;;;;;5012354;28;20468;-44
2021/10/10 08:19:11;;;;;;;15.37;8.70;;;10.40;70.70;;;;;;5007896;28;20461;-44
2021/10/10 08:21:38;;;;;;;14.03;9.50;;;10.60;69.40;;;;;;5013168;28;20471;-44
2021/10/10 08:24:05;;;;;;;12.57;8.87;;;10.60;68.80;;;;;;5010472;28;20457;-45
2021/10/10 08:26:32;;;;;;;15.47;10.50;;;10.80;69.20;;;;;;5015651;28;20471;-44
2021/10/10 08:29:01;;;;;;;12.93;8.60;;;11.00;69.50;;;;;;5009793;28;20895;-44
2021/10/10 08:31:28;;;;;;;13.00;9.33;;;11.20;68.50;;;;;;5013420;28;20484;-44
2021/10/10 08:33:55;;;;;;;15.47;8.93;;;11.20;67.00;;;;;;5012270;28;20471;-44
2021/10/10 08:36:42;;;;;;;10.70;9.00;;;11.30;67.00;;;;;;5010781;28;20473;-44
2021/10/10 08:39:08;;;;;;;14.10;9.20;;;11.40;67.40;;;;;;5011073;28;20470;-44
2021/10/10 08:41:36;;;;;;;13.50;9.87;;;11.30;67.50;;;;;;5010412;28;20471;-44
2021/10/10 08:44:06;;;;;;;20.60;9.97;;;11.30;67.70;;;;;;5013720;28;20466;-44
2021/10/10 08:46:38;;;;;;;11.40;9.00;;;11.20;67.70;;;;;;5015113;28;20456;-44
2021/10/10 08:49:05;;;;;;;12.57;9.07;;;11.20;68.10;;;;;;5013083;28;20464;-44
2021/10/10 08:51:35;;;;;;;14.47;10.40;;;11.20;68.30;;;;;;5010198;28;20484;-44
2021/10/10 08:54:02;;;;;;;10.97;8.83;;;11.10;68.40;;;;;;5008201;28;20454;-45
2021/10/10 08:56:29;;;;;;;14.87;9.10;;;11.00;68.00;;;;;;5009460;28;20834;-45
2021/10/10 08:59:01;;;;;;;11.13;8.40;;;11.10;68.30;;;;;;5011249;28;20468;-45
2021/10/10 09:01:31;;;;;;;13.70;10.40;;;11.20;67.50;;;;;;5011254;28;21067;-45
2021/10/10 09:03:59;;;;;;;12.97;9.03;;;11.20;67.60;;;;;;5009689;28;21064;-44
2021/10/10 09:06:26;;;;;;;10.37;9.30;;;11.30;67.70;;;;;;5009763;28;20488;-44
2021/10/10 09:08:53;;;;;;;13.20;8.17;;;11.30;67.40;;;;;;5009971;28;20587;-44
2021/10/10 09:11:20;;;;;;;13.97;9.43;;;11.30;67.20;;;;;;5012357;28;20591;-45
2021/10/10 09:13:59;;;;;;;12.27;9.70;;;11.30;66.40;;;;;;4997490;28;20456;-44
2021/10/10 09:16:36;;;;;;;11.33;9.07;;;11.30;65.70;;;;;;5013552;28;20496;-44
2021/10/10 09:19:27;;;;;;;16.67;9.20;;;11.40;65.90;;;;;;5012806;28;20459;-45
2021/10/10 09:22:02;;;;;;;14.20;11.37;;;11.40;64.80;;;;;;5012092;28;20464;-45
2021/10/10 09:24:30;;;;;;;11.17;9.80;;;11.40;65.60;;;;;;5013872;28;20841;-45
2021/10/10 09:26:56;;;;;;;11.03;9.70;;;11.50;65.50;;;;;;5011766;28;20591;-45
2021/10/10 09:29:41;;;;;;;13.30;9.20;;;11.60;65.20;;;;;;5010807;28;20468;-45
2021/10/10 09:32:11;;;;;;;11.03;8.60;;;11.60;65.20;;;;;;5012438;28;20488;-45
2021/10/10 09:34:39;;;;;;;14.10;10.10;;;11.60;63.90;;;;;;5010227;28;20459;-45
2021/10/10 09:37:37;;;;;;;14.03;9.50;;;11.70;64.20;;;;;;4996311;28;20464;-45
2021/10/10 09:40:05;;;;;;;13.40;9.03;;;11.80;64.30;;;;;;5011791;28;20842;-45
2021/10/10 09:42:38;;;;;;;13.87;9.60;;;11.90;64.00;;;;;;4997579;28;20475;-44
2021/10/10 09:45:25;;;;;;;13.47;9.97;;;11.90;63.60;;;;;;5011032;28;20905;-45
2021/10/10 09:48:02;;;;;;;14.20;10.60;;;12.00;63.50;;;;;;5009486;28;20464;-44
2021/10/10 09:50:36;;;;;;;20.10;10.00;;;12.10;62.80;;;;;;5012085;28;20471;-45
2021/10/10 09:53:12;;;;;;;14.70;9.53;;;12.10;63.00;;;;;;5012677;28;21228;-45
2021/10/10 09:55:56;;;;;;;12.20;9.70;;;12.10;62.80;;;;;;5011220;28;20460;-45
2021/10/10 09:58:37;;;;;;;14.13;9.40;;;12.30;63.10;;;;;;5010503;28;20498;-45
2021/10/10 10:01:12;;;;;;;14.90;8.90;;;12.40;63.40;;;;;;5010608;28;20547;-45
2021/10/10 10:04:06;;;;;;;14.90;9.10;;;12.50;62.90;;;;;;5008181;28;20491;-45
2021/10/10 10:06:35;;;;;;;16.80;9.70;;;12.70;62.90;;;;;;5011992;28;20463;-45
2021/10/10 10:09:04;;;;;;;12.50;9.30;;;12.90;62.60;;;;;;5012213;28;20973;-45
2021/10/10 10:11:33;;;;;;;15.37;10.10;;;13.20;62.70;;;;;;5010159;28;20482;-45
2021/10/10 10:14:05;;;;;;;13.13;9.33;;;13.40;62.10;;;;;;5011378;28;20461;-45
2021/10/10 10:16:33;;;;;;;15.10;9.27;;;13.60;61.70;;;;;;4995388;28;20464;-45
2021/10/10 10:19:00;;;;;;;12.83;10.00;;;13.80;61.40;;;;;;5009803;28;20470;-45
2021/10/10 10:21:28;;;;;;;13.50;9.47;;;14.00;60.50;;;;;;5008667;28;20965;-45
2021/10/10 10:24:01;;;;;;;13.23;11.20;;;14.30;60.80;;;;;;5010683;28;20468;-45
2021/10/10 10:26:32;;;;;;;13.90;10.30;;;14.50;60.10;;;;;;4990944;28;20462;-45
2021/10/10 10:29:03;;;;;;;13.90;10.60;;;14.60;58.60;;;;;;4992458;28;20866;-45
2021/10/10 10:31:32;;;;;;;15.80;11.43;;;14.60;58.10;;;;;;5014389;28;20491;-45
2021/10/10 10:34:28;;;;;;;14.67;10.07;;;14.70;58.30;;;;;;5011899;28;20464;-45
2021/10/10 10:37:06;;;;;;;14.20;11.20;;;14.60;58.00;;;;;;5011592;28;20460;-45
2021/10/10 10:39:45;;;;;;;18.07;11.33;;;14.70;58.50;;;;;;5010098;28;20464;-46
2021/10/10 10:42:23;;;;;;;17.40;11.43;;;14.70;58.50;;;;;;5010460;28;20494;-45
2021/10/10 10:44:51;;;;;;;12.70;10.83;;;14.70;58.30;;;;;;5007930;28;20464;-45
2021/10/10 10:47:20;;;;;;;18.13;11.27;;;14.60;58.70;;;;;;5012285;28;20564;-45
2021/10/10 10:49:54;;;;;;;14.63;11.60;;;14.50;59.10;;;;;;4993484;28;20861;-45
2021/10/10 10:52:29;;;;;;;13.20;11.10;;;14.50;59.40;;;;;;5011195;28;20953;-45
2021/10/10 10:55:05;;;;;;;14.80;11.57;;;14.50;59.60;;;;;;5013251;28;20470;-45
2021/10/10 10:57:33;;;;;;;16.50;12.90;;;14.50;60.10;;;;;;5013130;28;20851;-45
2021/10/10 11:00:34;;;;;;;13.00;10.83;;;14.40;59.80;;;;;;5011774;28;20460;-45
2021/10/10 11:03:06;;;;;;;18.23;12.57;;;14.30;59.90;;;;;;4996777;28;20550;-45
2021/10/10 11:05:37;;;;;;;18.10;12.40;;;14.30;60.30;;;;;;5014267;28;20563;-45
2021/10/10 11:08:05;;;;;;;17.60;13.23;;;14.20;60.80;;;;;;5013135;28;20444;-45
2021/10/10 11:10:34;;;;;;;14.97;11.40;;;14.20;61.00;;;;;;5012988;28;20547;-45
2021/10/10 11:13:07;;;;;;;17.57;13.17;;;14.10;61.20;;;;;;5011331;28;20557;-45
2021/10/10 11:15:53;;;;;;;17.47;11.33;;;14.20;60.80;;;;;;5013206;28;20468;-45
2021/10/10 11:18:22;;;;;;;14.73;11.10;;;14.20;61.00;;;;;;5005434;28;20483;-45
2021/10/10 11:20:55;;;;;;;16.30;12.50;;;14.20;61.00;;;;;;5012785;28;20463;-45
2021/10/10 11:23:24;;;;;;;19.30;12.77;;;14.30;61.60;;;;;;5010370;28;20460;-46
2021/10/10 11:25:52;;;;;;;16.93;13.00;;;14.30;61.50;;;;;;4992749;28;20545;-45
2021/10/10 11:28:32;;;;;;;15.60;11.77;;;14.30;60.70;;;;;;5012597;28;20833;-46
2021/10/10 11:31:14;;;;;;;16.37;11.83;;;14.30;60.80;;;;;;5015150;28;20933;-45
2021/10/10 11:33:47;;;;;;;14.57;11.63;;;14.40;60.60;;;;;;5016556;28;20463;-45
2021/10/10 11:36:15;;;;;;;16.80;12.07;;;14.30;60.40;;;;;;5014107;28;20453;-45
2021/10/10 11:38:54;;;;;;;21.67;12.10;;;14.30;60.60;;;;;;5015450;28;20478;-45
2021/10/10 11:41:23;;;;;;;17.43;12.70;;;14.40;60.70;;;;;;5012810;28;20798;-45
2021/10/10 11:44:00;;;;;;;16.87;12.80;;;14.40;60.70;;;;;;5014144;28;20464;-45
2021/10/10 11:46:45;;;;;;;16.87;11.80;;;14.50;60.80;;;;;;5011453;28;20448;-45
2021/10/10 11:49:40;;;;;;;23.93;12.20;;;14.50;60.60;;;;;;5013410;28;20586;-45
2021/10/10 11:54:57;;;;;;;14.73;11.10;;;14.60;60.50;;;;;;5015459;28;20455;-45
2021/10/10 11:57:26;;;;;;;13.47;11.10;;;14.60;60.50;;;;;;5012411;28;20490;-45
2021/10/10 11:59:54;;;;;;;20.30;13.20;;;14.50;60.50;;;;;;4997561;28;20460;-45
2021/10/10 12:02:33;;;;;;;13.50;11.57;;;14.50;60.40;;;;;;5014352;28;20464;-45
2021/10/10 12:05:05;;;;;;;16.00;12.30;;;14.50;60.50;;;;;;5016443;28;20993;-45
2021/10/10 12:07:33;;;;;;;14.43;10.93;;;14.50;60.20;;;;;;5013563;28;21268;-45
2021/10/10 12:10:01;;;;;;;14.20;11.77;;;14.50;60.20;;;;;;5014304;28;20948;-45
2021/10/10 12:12:28;;;;;;;21.97;13.20;;;14.50;61.00;;;;;;5012657;28;20483;-45
2021/10/10 12:14:56;;;;;;;17.37;12.50;;;14.50;61.00;;;;;;5016452;28;20851;-45
2021/10/10 12:17:37;;;;;;;18.77;12.13;;;14.40;61.20;;;;;;4996868;28;20466;-45
2021/10/10 12:20:16;;;;;;;15.27;11.63;;;14.40;61.10;;;;;;5013532;28;20528;-45
2021/10/10 12:22:47;;;;;;;14.70;11.20;;;14.40;60.60;;;;;;5011936;28;20952;-45
2021/10/10 12:25:34;;;;;;;12.23;10.93;;;14.40;61.10;;;;;;5014182;28;20955;-45
2021/10/10 12:28:08;;;;;;;18.43;10.80;;;14.50;61.20;;;;;;5014521;28;20535;-45
2021/10/10 12:31:01;;;;;;;16.90;12.10;;;14.50;60.10;;;;;;5011523;28;20456;-45
2021/10/10 12:33:43;;;;;;;18.10;12.27;;;14.40;60.10;;;;;;4998491;28;20481;-46
2021/10/10 12:36:14;;;;;;;18.30;11.57;;;14.40;59.60;;;;;;5010217;28;20452;-45
2021/10/10 12:38:50;;;;;;;15.10;12.37;;;14.40;59.70;;;;;;5014277;28;20535;-45
2021/10/10 12:41:20;;;;;;;15.80;11.77;;;14.50;59.40;;;;;;5012903;28;20566;-45
2021/10/10 12:43:49;;;;;;;11.97;10.73;;;14.50;59.60;;;;;;5013805;28;20464;-45
2021/10/10 12:46:19;;;;;;;15.57;10.50;;;14.50;59.50;;;;;;5013799;28;20468;-45
2021/10/10 12:49:02;;;;;;;11.77;10.00;;;14.60;59.70;;;;;;5013490;28;20522;-45
2021/10/10 12:51:29;;;;;;;16.27;12.00;;;14.70;59.50;;;;;;5012339;28;20465;-45
2021/10/10 12:54:14;;;;;;;15.53;12.90;;;14.70;59.20;;;;;;5015276;28;20456;-45